Weather at Aeródromo del Jarde

Public forecast

Using degrees Celsius for public forecast. Weather courtesy of forecast.io.

Closest aviation weather report (METAR) to Aeródromo del Jarde

Closest report is Fuerteventura Airport, 7.3 nm (13.5 km) ENE. Retrieved 2021/09/19 18:30 UTC (29 minutes ago):

GCFV 191830Z 05011KT 010V070 9999 BKN025 24/18 Q1019

Closest aviation forecast (TAF) to Aeródromo del Jarde

Closest forecast is Fuerteventura Airport, 7.3 nm (13.5 km) ENE. Retrieved 2021/09/19 15:27 UTC (4 hours ago):

TAF TAF GCFV 191400Z 1915/2015 05015KT 9999 SCT025 TX28/2014Z TN23/2006Z